sensor_id;sensor_type;location;lat;lon;timestamp;P1;durP1;ratioP1;P2;durP2;ratioP2
13807;SDS011;40769;51.512;5.494;2022-11-20T00:00:53;7.60;;;6.90;;
13807;SDS011;40769;51.512;5.494;2022-11-20T00:03:19;8.70;;;7.90;;
13807;SDS011;40769;51.512;5.494;2022-11-20T00:05:45;7.23;;;6.53;;
13807;SDS011;40769;51.512;5.494;2022-11-20T00:08:11;6.67;;;6.03;;
13807;SDS011;40769;51.512;5.494;2022-11-20T00:10:37;6.37;;;5.77;;
13807;SDS011;40769;51.512;5.494;2022-11-20T00:13:03;6.47;;;5.87;;
13807;SDS011;40769;51.512;5.494;2022-11-20T00:15:29;6.73;;;6.13;;
13807;SDS011;40769;51.512;5.494;2022-11-20T00:17:55;6.93;;;6.33;;
13807;SDS011;40769;51.512;5.494;2022-11-20T00:20:21;6.67;;;5.97;;
13807;SDS011;40769;51.512;5.494;2022-11-20T00:22:46;6.70;;;6.10;;
13807;SDS011;40769;51.512;5.494;2022-11-20T00:25:12;6.83;;;6.20;;
13807;SDS011;40769;51.512;5.494;2022-11-20T00:27:38;6.47;;;5.87;;
13807;SDS011;40769;51.512;5.494;2022-11-20T00:30:04;6.57;;;5.97;;
13807;SDS011;40769;51.512;5.494;2022-11-20T00:32:30;6.93;;;6.33;;
13807;SDS011;40769;51.512;5.494;2022-11-20T00:34:56;7.17;;;6.57;;
13807;SDS011;40769;51.512;5.494;2022-11-20T00:37:22;6.30;;;5.70;;
13807;SDS011;40769;51.512;5.494;2022-11-20T00:39:47;6.80;;;6.20;;
13807;SDS011;40769;51.512;5.494;2022-11-20T00:42:13;7.20;;;6.60;;
13807;SDS011;40769;51.512;5.494;2022-11-20T00:44:39;6.87;;;6.27;;
13807;SDS011;40769;51.512;5.494;2022-11-20T00:47:04;7.30;;;6.63;;
13807;SDS011;40769;51.512;5.494;2022-11-20T00:49:30;7.10;;;6.47;;
13807;SDS011;40769;51.512;5.494;2022-11-20T00:51:55;6.93;;;6.33;;
13807;SDS011;40769;51.512;5.494;2022-11-20T00:54:21;6.90;;;6.30;;
13807;SDS011;40769;51.512;5.494;2022-11-20T00:56:46;7.17;;;6.47;;
13807;SDS011;40769;51.512;5.494;2022-11-20T00:59:12;5.83;;;5.33;;
13807;SDS011;40769;51.512;5.494;2022-11-20T01:01:37;6.97;;;6.27;;
13807;SDS011;40769;51.512;5.494;2022-11-20T01:04:03;6.90;;;6.20;;
13807;SDS011;40769;51.512;5.494;2022-11-20T01:06:31;6.73;;;6.13;;
13807;SDS011;40769;51.512;5.494;2022-11-20T01:08:59;6.90;;;6.30;;
13807;SDS011;40769;51.512;5.494;2022-11-20T01:11:27;7.10;;;6.50;;
13807;SDS011;40769;51.512;5.494;2022-11-20T01:13:55;6.93;;;6.27;;
13807;SDS011;40769;51.512;5.494;2022-11-20T01:16:23;7.07;;;6.40;;
13807;SDS011;40769;51.512;5.494;2022-11-20T01:18:55;7.03;;;6.33;;
13807;SDS011;40769;51.512;5.494;2022-11-20T01:21:27;6.87;;;6.27;;
13807;SDS011;40769;51.512;5.494;2022-11-20T01:24:04;7.43;;;6.73;;
13807;SDS011;40769;51.512;5.494;2022-11-20T01:26:33;7.27;;;6.67;;
13807;SDS011;40769;51.512;5.494;2022-11-20T01:29:00;7.80;;;7.10;;
13807;SDS011;40769;51.512;5.494;2022-11-20T01:31:28;7.40;;;6.70;;
13807;SDS011;40769;51.512;5.494;2022-11-20T01:33:59;7.23;;;6.63;;
13807;SDS011;40769;51.512;5.494;2022-11-20T01:36:28;7.20;;;6.47;;
13807;SDS011;40769;51.512;5.494;2022-11-20T01:38:56;7.20;;;6.50;;
13807;SDS011;40769;51.512;5.494;2022-11-20T01:41:27;7.83;;;7.07;;
13807;SDS011;40769;51.512;5.494;2022-11-20T01:44:14;6.90;;;6.30;;
13807;SDS011;40769;51.512;5.494;2022-11-20T01:46:45;6.93;;;6.33;;
13807;SDS011;40769;51.512;5.494;2022-11-20T01:49:23;6.87;;;6.27;;
13807;SDS011;40769;51.512;5.494;2022-11-20T01:52:16;6.67;;;6.07;;
13807;SDS011;40769;51.512;5.494;2022-11-20T01:54:55;6.70;;;6.10;;
13807;SDS011;40769;51.512;5.494;2022-11-20T01:57:42;7.30;;;6.60;;
13807;SDS011;40769;51.512;5.494;2022-11-20T02:00:11;7.17;;;6.53;;
13807;SDS011;40769;51.512;5.494;2022-11-20T02:02:44;7.00;;;6.40;;
13807;SDS011;40769;51.512;5.494;2022-11-20T02:05:21;10.10;;;9.10;;
13807;SDS011;40769;51.512;5.494;2022-11-20T02:07:48;7.90;;;7.20;;
13807;SDS011;40769;51.512;5.494;2022-11-20T02:10:14;8.70;;;7.80;;
13807;SDS011;40769;51.512;5.494;2022-11-20T02:12:40;8.00;;;7.30;;
13807;SDS011;40769;51.512;5.494;2022-11-20T02:15:24;7.43;;;6.73;;
13807;SDS011;40769;51.512;5.494;2022-11-20T02:17:52;8.13;;;7.33;;
13807;SDS011;40769;51.512;5.494;2022-11-20T02:20:18;10.20;;;9.10;;
13807;SDS011;40769;51.512;5.494;2022-11-20T02:22:48;7.43;;;6.80;;
13807;SDS011;40769;51.512;5.494;2022-11-20T02:25:36;8.07;;;7.27;;
13807;SDS011;40769;51.512;5.494;2022-11-20T02:28:03;8.13;;;7.33;;
13807;SDS011;40769;51.512;5.494;2022-11-20T02:30:29;8.13;;;7.33;;
13807;SDS011;40769;51.512;5.494;2022-11-20T02:32:55;7.87;;;7.07;;
13807;SDS011;40769;51.512;5.494;2022-11-20T02:37:48;8.40;;;7.60;;
13807;SDS011;40769;51.512;5.494;2022-11-20T02:40:17;8.77;;;7.70;;
13807;SDS011;40769;51.512;5.494;2022-11-20T02:42:43;10.53;;;9.50;;
13807;SDS011;40769;51.512;5.494;2022-11-20T02:45:08;11.47;;;10.37;;
13807;SDS011;40769;51.512;5.494;2022-11-20T02:47:34;10.80;;;9.70;;
13807;SDS011;40769;51.512;5.494;2022-11-20T02:50:00;10.60;;;9.53;;
13807;SDS011;40769;51.512;5.494;2022-11-20T02:52:26;11.70;;;10.50;;
13807;SDS011;40769;51.512;5.494;2022-11-20T02:54:52;11.03;;;10.03;;
13807;SDS011;40769;51.512;5.494;2022-11-20T02:57:18;10.47;;;9.47;;
13807;SDS011;40769;51.512;5.494;2022-11-20T02:59:43;11.67;;;10.53;;
13807;SDS011;40769;51.512;5.494;2022-11-20T03:02:09;11.60;;;10.50;;
13807;SDS011;40769;51.512;5.494;2022-11-20T03:04:34;11.17;;;10.03;;
13807;SDS011;40769;51.512;5.494;2022-11-20T03:07:00;11.13;;;10.00;;
13807;SDS011;40769;51.512;5.494;2022-11-20T03:09:26;11.60;;;10.40;;
13807;SDS011;40769;51.512;5.494;2022-11-20T03:11:51;10.93;;;9.83;;
13807;SDS011;40769;51.512;5.494;2022-11-20T03:14:17;11.93;;;10.77;;
13807;SDS011;40769;51.512;5.494;2022-11-20T03:16:43;10.57;;;9.57;;
13807;SDS011;40769;51.512;5.494;2022-11-20T03:19:08;10.83;;;9.73;;
13807;SDS011;40769;51.512;5.494;2022-11-20T03:21:34;11.47;;;10.37;;
13807;SDS011;40769;51.512;5.494;2022-11-20T03:24:00;11.57;;;10.37;;
13807;SDS011;40769;51.512;5.494;2022-11-20T03:26:27;12.20;;;11.00;;
13807;SDS011;40769;51.512;5.494;2022-11-20T03:28:56;11.87;;;10.67;;
13807;SDS011;40769;51.512;5.494;2022-11-20T03:31:28;11.57;;;10.43;;
13807;SDS011;40769;51.512;5.494;2022-11-20T03:33:59;11.30;;;10.00;;
13807;SDS011;40769;51.512;5.494;2022-11-20T03:36:26;11.20;;;10.10;;
13807;SDS011;40769;51.512;5.494;2022-11-20T03:38:55;11.43;;;10.30;;
13807;SDS011;40769;51.512;5.494;2022-11-20T03:41:25;8.63;;;7.83;;
13807;SDS011;40769;51.512;5.494;2022-11-20T03:43:54;11.00;;;9.83;;
13807;SDS011;40769;51.512;5.494;2022-11-20T03:46:21;11.90;;;10.50;;
13807;SDS011;40769;51.512;5.494;2022-11-20T03:48:47;13.20;;;11.17;;
13807;SDS011;40769;51.512;5.494;2022-11-20T03:51:17;13.03;;;11.70;;
13807;SDS011;40769;51.512;5.494;2022-11-20T03:53:50;12.80;;;11.50;;
13807;SDS011;40769;51.512;5.494;2022-11-20T03:56:18;12.93;;;11.63;;
13807;SDS011;40769;51.512;5.494;2022-11-20T03:58:48;12.73;;;11.43;;
13807;SDS011;40769;51.512;5.494;2022-11-20T04:01:18;11.67;;;10.27;;
13807;SDS011;40769;51.512;5.494;2022-11-20T04:03:45;12.20;;;10.90;;
13807;SDS011;40769;51.512;5.494;2022-11-20T04:06:12;12.80;;;11.50;;
13807;SDS011;40769;51.512;5.494;2022-11-20T04:08:40;11.43;;;10.23;;
13807;SDS011;40769;51.512;5.494;2022-11-20T04:13:35;13.30;;;11.33;;
13807;SDS011;40769;51.512;5.494;2022-11-20T04:16:01;12.50;;;11.23;;
13807;SDS011;40769;51.512;5.494;2022-11-20T04:18:30;11.73;;;10.53;;
13807;SDS011;40769;51.512;5.494;2022-11-20T04:20:56;12.30;;;11.10;;
13807;SDS011;40769;51.512;5.494;2022-11-20T04:23:22;13.90;;;11.67;;
13807;SDS011;40769;51.512;5.494;2022-11-20T04:25:48;11.47;;;10.27;;
13807;SDS011;40769;51.512;5.494;2022-11-20T04:28:14;11.63;;;10.53;;
13807;SDS011;40769;51.512;5.494;2022-11-20T04:30:39;9.17;;;8.27;;
13807;SDS011;40769;51.512;5.494;2022-11-20T04:33:05;10.27;;;9.23;;
13807;SDS011;40769;51.512;5.494;2022-11-20T04:35:33;8.37;;;7.57;;
13807;SDS011;40769;51.512;5.494;2022-11-20T04:37:59;11.97;;;10.67;;
13807;SDS011;40769;51.512;5.494;2022-11-20T04:40:25;11.03;;;9.93;;
13807;SDS011;40769;51.512;5.494;2022-11-20T04:42:50;10.60;;;9.53;;
13807;SDS011;40769;51.512;5.494;2022-11-20T04:45:16;10.60;;;9.50;;
13807;SDS011;40769;51.512;5.494;2022-11-20T04:47:42;10.70;;;9.57;;
13807;SDS011;40769;51.512;5.494;2022-11-20T04:50:07;9.93;;;8.77;;
13807;SDS011;40769;51.512;5.494;2022-11-20T04:52:33;8.80;;;7.90;;
13807;SDS011;40769;51.512;5.494;2022-11-20T04:54:59;7.63;;;6.93;;
13807;SDS011;40769;51.512;5.494;2022-11-20T04:57:24;8.20;;;7.33;;
13807;SDS011;40769;51.512;5.494;2022-11-20T04:59:50;7.73;;;6.93;;
13807;SDS011;40769;51.512;5.494;2022-11-20T05:02:16;12.53;;;11.23;;
13807;SDS011;40769;51.512;5.494;2022-11-20T05:04:41;11.20;;;10.10;;
13807;SDS011;40769;51.512;5.494;2022-11-20T05:07:07;12.77;;;11.27;;
13807;SDS011;40769;51.512;5.494;2022-11-20T05:09:32;11.90;;;10.80;;
13807;SDS011;40769;51.512;5.494;2022-11-20T05:11:58;12.77;;;11.43;;
13807;SDS011;40769;51.512;5.494;2022-11-20T05:14:24;12.80;;;11.50;;
13807;SDS011;40769;51.512;5.494;2022-11-20T05:16:49;12.00;;;10.77;;
13807;SDS011;40769;51.512;5.494;2022-11-20T05:19:15;11.73;;;10.53;;
13807;SDS011;40769;51.512;5.494;2022-11-20T05:21:40;12.33;;;11.07;;
13807;SDS011;40769;51.512;5.494;2022-11-20T05:24:06;12.20;;;11.00;;
13807;SDS011;40769;51.512;5.494;2022-11-20T05:26:32;11.50;;;10.20;;
13807;SDS011;40769;51.512;5.494;2022-11-20T05:28:57;12.27;;;10.67;;
13807;SDS011;40769;51.512;5.494;2022-11-20T05:31:23;12.03;;;10.83;;
13807;SDS011;40769;51.512;5.494;2022-11-20T05:33:50;11.63;;;10.43;;
13807;SDS011;40769;51.512;5.494;2022-11-20T05:36:16;12.23;;;11.00;;
13807;SDS011;40769;51.512;5.494;2022-11-20T05:38:42;12.93;;;11.60;;
13807;SDS011;40769;51.512;5.494;2022-11-20T05:41:09;13.57;;;12.00;;
13807;SDS011;40769;51.512;5.494;2022-11-20T05:43:39;11.70;;;10.30;;
13807;SDS011;40769;51.512;5.494;2022-11-20T05:46:09;11.97;;;10.70;;
13807;SDS011;40769;51.512;5.494;2022-11-20T05:48:36;13.40;;;12.00;;
13807;SDS011;40769;51.512;5.494;2022-11-20T05:51:03;15.60;;;12.27;;
13807;SDS011;40769;51.512;5.494;2022-11-20T05:53:29;13.13;;;11.77;;
13807;SDS011;40769;51.512;5.494;2022-11-20T05:55:57;12.53;;;11.23;;
13807;SDS011;40769;51.512;5.494;2022-11-20T05:58:30;13.10;;;11.70;;
13807;SDS011;40769;51.512;5.494;2022-11-20T06:03:52;12.33;;;11.03;;
13807;SDS011;40769;51.512;5.494;2022-11-20T06:06:19;12.10;;;10.83;;
13807;SDS011;40769;51.512;5.494;2022-11-20T06:08:45;10.03;;;8.93;;
13807;SDS011;40769;51.512;5.494;2022-11-20T06:11:12;9.80;;;8.80;;
13807;SDS011;40769;51.512;5.494;2022-11-20T06:13:39;10.87;;;9.77;;
13807;SDS011;40769;51.512;5.494;2022-11-20T06:16:05;10.27;;;9.20;;
13807;SDS011;40769;51.512;5.494;2022-11-20T06:18:30;10.60;;;9.53;;
13807;SDS011;40769;51.512;5.494;2022-11-20T06:21:03;11.00;;;9.90;;
13807;SDS011;40769;51.512;5.494;2022-11-20T06:23:33;9.03;;;8.17;;
13807;SDS011;40769;51.512;5.494;2022-11-20T06:26:01;8.43;;;7.63;;
13807;SDS011;40769;51.512;5.494;2022-11-20T06:28:37;8.67;;;7.87;;
13807;SDS011;40769;51.512;5.494;2022-11-20T06:31:04;7.77;;;7.07;;
13807;SDS011;40769;51.512;5.494;2022-11-20T06:33:30;8.17;;;7.37;;
13807;SDS011;40769;51.512;5.494;2022-11-20T06:35:57;8.30;;;7.60;;
13807;SDS011;40769;51.512;5.494;2022-11-20T06:38:24;8.73;;;8.00;;
13807;SDS011;40769;51.512;5.494;2022-11-20T06:40:50;10.93;;;8.93;;
13807;SDS011;40769;51.512;5.494;2022-11-20T06:43:15;11.10;;;10.03;;
13807;SDS011;40769;51.512;5.494;2022-11-20T06:45:41;12.50;;;11.37;;
13807;SDS011;40769;51.512;5.494;2022-11-20T06:48:07;13.40;;;12.00;;
13807;SDS011;40769;51.512;5.494;2022-11-20T06:50:34;12.03;;;10.83;;
13807;SDS011;40769;51.512;5.494;2022-11-20T06:53:04;11.43;;;10.33;;
13807;SDS011;40769;51.512;5.494;2022-11-20T06:55:30;11.67;;;10.57;;
13807;SDS011;40769;51.512;5.494;2022-11-20T06:57:57;12.67;;;11.47;;
13807;SDS011;40769;51.512;5.494;2022-11-20T07:00:23;12.63;;;11.43;;
13807;SDS011;40769;51.512;5.494;2022-11-20T07:02:49;10.80;;;9.50;;
13807;SDS011;40769;51.512;5.494;2022-11-20T07:05:14;11.87;;;10.67;;
13807;SDS011;40769;51.512;5.494;2022-11-20T07:07:40;11.80;;;10.60;;
13807;SDS011;40769;51.512;5.494;2022-11-20T07:10:06;10.83;;;9.83;;
13807;SDS011;40769;51.512;5.494;2022-11-20T07:12:32;12.47;;;11.27;;
13807;SDS011;40769;51.512;5.494;2022-11-20T07:14:57;11.20;;;10.20;;
13807;SDS011;40769;51.512;5.494;2022-11-20T07:17:23;10.57;;;9.60;;
13807;SDS011;40769;51.512;5.494;2022-11-20T07:19:49;11.60;;;10.50;;
13807;SDS011;40769;51.512;5.494;2022-11-20T07:22:14;12.10;;;10.80;;
13807;SDS011;40769;51.512;5.494;2022-11-20T07:24:40;11.50;;;10.40;;
13807;SDS011;40769;51.512;5.494;2022-11-20T07:27:05;11.33;;;10.23;;
13807;SDS011;40769;51.512;5.494;2022-11-20T07:29:31;12.33;;;11.20;;
13807;SDS011;40769;51.512;5.494;2022-11-20T07:31:56;10.77;;;9.77;;
13807;SDS011;40769;51.512;5.494;2022-11-20T07:34:22;11.87;;;10.67;;
13807;SDS011;40769;51.512;5.494;2022-11-20T07:36:48;11.60;;;10.50;;
13807;SDS011;40769;51.512;5.494;2022-11-20T07:39:14;11.83;;;10.73;;
13807;SDS011;40769;51.512;5.494;2022-11-20T07:41:42;12.00;;;10.83;;
13807;SDS011;40769;51.512;5.494;2022-11-20T07:44:07;12.13;;;10.93;;
13807;SDS011;40769;51.512;5.494;2022-11-20T07:46:33;11.87;;;10.67;;
13807;SDS011;40769;51.512;5.494;2022-11-20T07:48:58;12.63;;;11.43;;
13807;SDS011;40769;51.512;5.494;2022-11-20T07:51:24;11.00;;;9.93;;
13807;SDS011;40769;51.512;5.494;2022-11-20T07:53:51;11.53;;;10.43;;
13807;SDS011;40769;51.512;5.494;2022-11-20T07:56:17;12.33;;;11.13;;
13807;SDS011;40769;51.512;5.494;2022-11-20T07:58:43;12.03;;;10.93;;
13807;SDS011;40769;51.512;5.494;2022-11-20T08:01:08;11.47;;;10.37;;
13807;SDS011;40769;51.512;5.494;2022-11-20T08:03:34;12.37;;;11.17;;
13807;SDS011;40769;51.512;5.494;2022-11-20T08:06:02;12.97;;;11.57;;
13807;SDS011;40769;51.512;5.494;2022-11-20T08:08:28;12.47;;;11.27;;
13807;SDS011;40769;51.512;5.494;2022-11-20T08:10:54;12.37;;;11.17;;
13807;SDS011;40769;51.512;5.494;2022-11-20T08:13:41;12.03;;;10.93;;
13807;SDS011;40769;51.512;5.494;2022-11-20T08:16:25;12.10;;;10.90;;
13807;SDS011;40769;51.512;5.494;2022-11-20T08:18:51;12.53;;;11.33;;
13807;SDS011;40769;51.512;5.494;2022-11-20T08:21:16;12.13;;;10.93;;
13807;SDS011;40769;51.512;5.494;2022-11-20T08:23:42;11.90;;;10.73;;
13807;SDS011;40769;51.512;5.494;2022-11-20T08:26:07;12.23;;;11.10;;
13807;SDS011;40769;51.512;5.494;2022-11-20T08:28:36;12.67;;;11.47;;
13807;SDS011;40769;51.512;5.494;2022-11-20T08:31:04;13.00;;;11.70;;
13807;SDS011;40769;51.512;5.494;2022-11-20T08:33:30;12.43;;;11.33;;
13807;SDS011;40769;51.512;5.494;2022-11-20T08:36:04;13.07;;;11.87;;
13807;SDS011;40769;51.512;5.494;2022-11-20T08:38:30;12.90;;;11.67;;
13807;SDS011;40769;51.512;5.494;2022-11-20T08:40:57;13.10;;;11.90;;
13807;SDS011;40769;51.512;5.494;2022-11-20T08:43:42;12.57;;;11.37;;
13807;SDS011;40769;51.512;5.494;2022-11-20T08:46:08;13.07;;;11.83;;
13807;SDS011;40769;51.512;5.494;2022-11-20T08:48:33;11.53;;;10.43;;
13807;SDS011;40769;51.512;5.494;2022-11-20T08:50:59;12.27;;;11.03;;
13807;SDS011;40769;51.512;5.494;2022-11-20T08:53:25;11.00;;;9.90;;
13807;SDS011;40769;51.512;5.494;2022-11-20T08:55:51;12.20;;;11.07;;
13807;SDS011;40769;51.512;5.494;2022-11-20T08:58:17;9.93;;;9.03;;
13807;SDS011;40769;51.512;5.494;2022-11-20T09:00:42;10.63;;;9.63;;
13807;SDS011;40769;51.512;5.494;2022-11-20T09:03:08;9.03;;;8.23;;
13807;SDS011;40769;51.512;5.494;2022-11-20T09:05:33;11.10;;;10.10;;
13807;SDS011;40769;51.512;5.494;2022-11-20T09:07:59;13.00;;;11.80;;
13807;SDS011;40769;51.512;5.494;2022-11-20T09:10:28;12.13;;;11.03;;
13807;SDS011;40769;51.512;5.494;2022-11-20T09:12:54;11.53;;;10.43;;
13807;SDS011;40769;51.512;5.494;2022-11-20T09:15:23;10.83;;;9.73;;
13807;SDS011;40769;51.512;5.494;2022-11-20T09:17:52;10.63;;;9.63;;
13807;SDS011;40769;51.512;5.494;2022-11-20T09:20:19;10.20;;;9.27;;
13807;SDS011;40769;51.512;5.494;2022-11-20T09:22:45;8.95;;;8.15;;
13807;SDS011;40769;51.512;5.494;2022-11-20T09:25:10;9.15;;;8.25;;
13807;SDS011;40769;51.512;5.494;2022-11-20T09:27:36;8.20;;;7.40;;
13807;SDS011;40769;51.512;5.494;2022-11-20T09:30:02;9.05;;;8.15;;
13807;SDS011;40769;51.512;5.494;2022-11-20T09:32:28;8.65;;;7.93;;
13807;SDS011;40769;51.512;5.494;2022-11-20T09:34:53;11.32;;;10.23;;
13807;SDS011;40769;51.512;5.494;2022-11-20T09:37:22;10.98;;;9.98;;
13807;SDS011;40769;51.512;5.494;2022-11-20T09:39:47;12.77;;;11.57;;
13807;SDS011;40769;51.512;5.494;2022-11-20T09:47:20;15.93;;;14.05;;
13807;SDS011;40769;51.512;5.494;2022-11-20T09:50:02;15.25;;;13.65;;
13807;SDS011;40769;51.512;5.494;2022-11-20T09:55:24;16.02;;;14.32;;
13807;SDS011;40769;51.512;5.494;2022-11-20T09:57:51;14.57;;;12.85;;
13807;SDS011;40769;51.512;5.494;2022-11-20T10:00:17;13.77;;;12.35;;
13807;SDS011;40769;51.512;5.494;2022-11-20T10:03:02;17.67;;;14.52;;
13807;SDS011;40769;51.512;5.494;2022-11-20T10:10:46;20.38;;;16.08;;
13807;SDS011;40769;51.512;5.494;2022-11-20T10:18:54;21.17;;;16.85;;
13807;SDS011;40769;51.512;5.494;2022-11-20T10:27:02;23.02;;;18.20;;
13807;SDS011;40769;51.512;5.494;2022-11-20T10:29:53;22.95;;;18.10;;
13807;SDS011;40769;51.512;5.494;2022-11-20T10:32:30;20.60;;;17.67;;
13807;SDS011;40769;51.512;5.494;2022-11-20T10:35:02;23.87;;;18.47;;
13807;SDS011;40769;51.512;5.494;2022-11-20T10:37:41;23.65;;;19.52;;
13807;SDS011;40769;51.512;5.494;2022-11-20T10:42:59;26.83;;;19.90;;
13807;SDS011;40769;51.512;5.494;2022-11-20T10:50:40;23.55;;;19.73;;
13807;SDS011;40769;51.512;5.494;2022-11-20T10:53:21;21.50;;;17.95;;
13807;SDS011;40769;51.512;5.494;2022-11-20T11:01:46;26.73;;;19.38;;
13807;SDS011;40769;51.512;5.494;2022-11-20T11:04:30;27.98;;;20.40;;
13807;SDS011;40769;51.512;5.494;2022-11-20T11:07:04;21.30;;;16.52;;
13807;SDS011;40769;51.512;5.494;2022-11-20T11:09:39;26.30;;;20.20;;
13807;SDS011;40769;51.512;5.494;2022-11-20T11:12:09;22.25;;;17.58;;
13807;SDS011;40769;51.512;5.494;2022-11-20T11:14:42;18.92;;;16.13;;
13807;SDS011;40769;51.512;5.494;2022-11-20T11:17:17;23.17;;;18.63;;
13807;SDS011;40769;51.512;5.494;2022-11-20T11:20:05;25.70;;;18.88;;
13807;SDS011;40769;51.512;5.494;2022-11-20T11:22:45;28.23;;;21.63;;
13807;SDS011;40769;51.512;5.494;2022-11-20T11:25:19;24.50;;;19.67;;
13807;SDS011;40769;51.512;5.494;2022-11-20T11:27:47;23.60;;;19.95;;
13807;SDS011;40769;51.512;5.494;2022-11-20T11:30:14;27.92;;;21.00;;
13807;SDS011;40769;51.512;5.494;2022-11-20T11:32:42;26.98;;;22.05;;
13807;SDS011;40769;51.512;5.494;2022-11-20T11:35:25;25.92;;;20.85;;
13807;SDS011;40769;51.512;5.494;2022-11-20T11:37:54;23.50;;;19.50;;
13807;SDS011;40769;51.512;5.494;2022-11-20T11:40:27;20.48;;;16.77;;
13807;SDS011;40769;51.512;5.494;2022-11-20T11:42:59;26.50;;;22.27;;
13807;SDS011;40769;51.512;5.494;2022-11-20T11:45:29;20.85;;;17.70;;
13807;SDS011;40769;51.512;5.494;2022-11-20T11:47:58;23.90;;;20.58;;
13807;SDS011;40769;51.512;5.494;2022-11-20T11:50:28;20.02;;;17.50;;
13807;SDS011;40769;51.512;5.494;2022-11-20T11:53:13;16.35;;;13.95;;
13807;SDS011;40769;51.512;5.494;2022-11-20T11:55:47;25.23;;;18.25;;
13807;SDS011;40769;51.512;5.494;2022-11-20T12:04:17;20.45;;;17.85;;
13807;SDS011;40769;51.512;5.494;2022-11-20T12:07:04;21.48;;;18.02;;
13807;SDS011;40769;51.512;5.494;2022-11-20T12:09:46;22.02;;;17.92;;
13807;SDS011;40769;51.512;5.494;2022-11-20T12:12:38;23.73;;;20.08;;
13807;SDS011;40769;51.512;5.494;2022-11-20T12:15:08;24.45;;;19.63;;
13807;SDS011;40769;51.512;5.494;2022-11-20T12:17:37;22.05;;;18.30;;
13807;SDS011;40769;51.512;5.494;2022-11-20T12:20:05;20.20;;;17.60;;
13807;SDS011;40769;51.512;5.494;2022-11-20T12:25:28;25.35;;;20.67;;
13807;SDS011;40769;51.512;5.494;2022-11-20T12:30:42;27.50;;;21.95;;
13807;SDS011;40769;51.512;5.494;2022-11-20T12:33:24;24.38;;;20.48;;
13807;SDS011;40769;51.512;5.494;2022-11-20T12:41:40;23.13;;;19.17;;
13807;SDS011;40769;51.512;5.494;2022-11-20T13:02:18;20.40;;;17.77;;
13807;SDS011;40769;51.512;5.494;2022-11-20T13:04:46;20.77;;;17.65;;
13807;SDS011;40769;51.512;5.494;2022-11-20T13:07:29;19.88;;;15.98;;
13807;SDS011;40769;51.512;5.494;2022-11-20T13:09:57;22.90;;;18.45;;
13807;SDS011;40769;51.512;5.494;2022-11-20T13:12:33;21.55;;;17.52;;
13807;SDS011;40769;51.512;5.494;2022-11-20T13:17:57;20.02;;;16.80;;
13807;SDS011;40769;51.512;5.494;2022-11-20T13:20:25;19.90;;;17.08;;
13807;SDS011;40769;51.512;5.494;2022-11-20T13:22:52;20.42;;;17.00;;
13807;SDS011;40769;51.512;5.494;2022-11-20T13:25:35;18.42;;;15.38;;
13807;SDS011;40769;51.512;5.494;2022-11-20T13:30:33;20.20;;;16.42;;
13807;SDS011;40769;51.512;5.494;2022-11-20T13:33:07;15.85;;;13.80;;
13807;SDS011;40769;51.512;5.494;2022-11-20T13:36:02;17.55;;;14.68;;
13807;SDS011;40769;51.512;5.494;2022-11-20T13:38:43;23.45;;;17.70;;
13807;SDS011;40769;51.512;5.494;2022-11-20T13:41:11;18.88;;;15.75;;
13807;SDS011;40769;51.512;5.494;2022-11-20T13:43:54;21.25;;;16.67;;
13807;SDS011;40769;51.512;5.494;2022-11-20T13:46:41;18.65;;;15.32;;
13807;SDS011;40769;51.512;5.494;2022-11-20T13:49:10;21.70;;;16.90;;
13807;SDS011;40769;51.512;5.494;2022-11-20T13:51:48;16.45;;;13.63;;
13807;SDS011;40769;51.512;5.494;2022-11-20T13:54:28;14.95;;;12.98;;
13807;SDS011;40769;51.512;5.494;2022-11-20T14:02:36;15.77;;;12.65;;
13807;SDS011;40769;51.512;5.494;2022-11-20T14:05:02;18.20;;;15.68;;
13807;SDS011;40769;51.512;5.494;2022-11-20T14:07:40;20.15;;;17.10;;
13807;SDS011;40769;51.512;5.494;2022-11-20T14:13:15;15.80;;;13.55;;
13807;SDS011;40769;51.512;5.494;2022-11-20T14:15:43;16.30;;;13.43;;
13807;SDS011;40769;51.512;5.494;2022-11-20T14:18:19;19.00;;;15.57;;
13807;SDS011;40769;51.512;5.494;2022-11-20T14:20:46;18.35;;;15.18;;
13807;SDS011;40769;51.512;5.494;2022-11-20T14:23:12;14.73;;;13.10;;
13807;SDS011;40769;51.512;5.494;2022-11-20T14:25:49;15.98;;;13.10;;
13807;SDS011;40769;51.512;5.494;2022-11-20T14:28:28;20.27;;;16.70;;
13807;SDS011;40769;51.512;5.494;2022-11-20T14:30:55;22.08;;;17.02;;
13807;SDS011;40769;51.512;5.494;2022-11-20T14:33:22;19.15;;;15.68;;
13807;SDS011;40769;51.512;5.494;2022-11-20T14:35:59;15.95;;;12.80;;
13807;SDS011;40769;51.512;5.494;2022-11-20T14:38:25;14.75;;;12.40;;
13807;SDS011;40769;51.512;5.494;2022-11-20T14:40:53;19.70;;;15.38;;
13807;SDS011;40769;51.512;5.494;2022-11-20T14:43:23;18.67;;;15.70;;
13807;SDS011;40769;51.512;5.494;2022-11-20T14:45:56;17.40;;;14.50;;
13807;SDS011;40769;51.512;5.494;2022-11-20T14:48:26;18.00;;;15.02;;
13807;SDS011;40769;51.512;5.494;2022-11-20T14:50:59;17.02;;;14.02;;
13807;SDS011;40769;51.512;5.494;2022-11-20T14:53:24;14.88;;;12.15;;
13807;SDS011;40769;51.512;5.494;2022-11-20T14:55:57;17.65;;;15.07;;
13807;SDS011;40769;51.512;5.494;2022-11-20T14:58:32;17.48;;;13.38;;
13807;SDS011;40769;51.512;5.494;2022-11-20T15:00:59;18.33;;;15.23;;
13807;SDS011;40769;51.512;5.494;2022-11-20T15:03:32;23.20;;;17.90;;
13807;SDS011;40769;51.512;5.494;2022-11-20T15:06:02;22.17;;;18.17;;
13807;SDS011;40769;51.512;5.494;2022-11-20T15:08:29;21.35;;;17.85;;
13807;SDS011;40769;51.512;5.494;2022-11-20T15:10:55;20.98;;;17.17;;
13807;SDS011;40769;51.512;5.494;2022-11-20T15:15:55;29.15;;;21.70;;
13807;SDS011;40769;51.512;5.494;2022-11-20T15:18:23;24.05;;;18.90;;
13807;SDS011;40769;51.512;5.494;2022-11-20T15:20:53;20.20;;;17.05;;
13807;SDS011;40769;51.512;5.494;2022-11-20T15:23:21;17.42;;;14.55;;
13807;SDS011;40769;51.512;5.494;2022-11-20T15:25:47;40.95;;;19.95;;
13807;SDS011;40769;51.512;5.494;2022-11-20T15:28:25;23.42;;;18.92;;
13807;SDS011;40769;51.512;5.494;2022-11-20T15:30:55;25.02;;;19.35;;
13807;SDS011;40769;51.512;5.494;2022-11-20T15:33:21;28.08;;;19.60;;
13807;SDS011;40769;51.512;5.494;2022-11-20T15:35:47;17.70;;;15.15;;
13807;SDS011;40769;51.512;5.494;2022-11-20T15:38:13;19.67;;;15.60;;
13807;SDS011;40769;51.512;5.494;2022-11-20T15:40:38;26.38;;;15.60;;
13807;SDS011;40769;51.512;5.494;2022-11-20T15:43:04;21.23;;;17.15;;
13807;SDS011;40769;51.512;5.494;2022-11-20T15:45:44;23.25;;;17.30;;
13807;SDS011;40769;51.512;5.494;2022-11-20T15:48:23;26.98;;;18.35;;
13807;SDS011;40769;51.512;5.494;2022-11-20T15:50:53;18.83;;;15.40;;
13807;SDS011;40769;51.512;5.494;2022-11-20T15:53:24;20.25;;;15.88;;
13807;SDS011;40769;51.512;5.494;2022-11-20T15:55:50;22.73;;;17.40;;
13807;SDS011;40769;51.512;5.494;2022-11-20T15:58:15;20.42;;;16.45;;
13807;SDS011;40769;51.512;5.494;2022-11-20T16:00:44;25.30;;;19.05;;
13807;SDS011;40769;51.512;5.494;2022-11-20T16:03:13;22.92;;;17.20;;
13807;SDS011;40769;51.512;5.494;2022-11-20T16:05:43;19.48;;;15.13;;
13807;SDS011;40769;51.512;5.494;2022-11-20T16:08:09;22.58;;;16.67;;
13807;SDS011;40769;51.512;5.494;2022-11-20T16:10:35;26.27;;;19.17;;
13807;SDS011;40769;51.512;5.494;2022-11-20T16:13:00;23.33;;;17.70;;
13807;SDS011;40769;51.512;5.494;2022-11-20T16:15:46;21.33;;;16.25;;
13807;SDS011;40769;51.512;5.494;2022-11-20T16:18:17;16.25;;;13.35;;